createdAt,value
2019-02-05T00:00:57.349Z,30.87
2019-02-05T00:03:26.694Z,27.13
2019-02-05T00:05:55.992Z,26.97
2019-02-05T00:08:25.338Z,24.33
2019-02-05T00:10:55.110Z,26.30
2019-02-05T00:13:24.449Z,28.40
2019-02-05T00:15:53.760Z,25.13
2019-02-05T00:18:23.105Z,25.17
2019-02-05T00:20:52.407Z,25.23
2019-02-05T00:23:21.740Z,26.37
2019-02-05T00:25:51.452Z,26.37
2019-02-05T00:28:20.793Z,26.17
2019-02-05T00:30:50.093Z,25.23
2019-02-05T00:33:19.565Z,27.50
2019-02-05T00:35:48.873Z,26.07
2019-02-05T00:38:18.223Z,27.17
2019-02-05T00:40:47.826Z,26.93
2019-02-05T00:43:17.597Z,25.13
2019-02-05T00:45:46.908Z,27.63
2019-02-05T00:48:16.245Z,27.70
2019-02-05T00:50:45.549Z,27.13
2019-02-05T00:53:14.952Z,24.33
2019-02-05T00:55:44.464Z,28.43
2019-02-05T00:58:13.808Z,26.73
2019-02-05T01:00:43.190Z,29.10
2019-02-05T01:03:12.533Z,28.13
2019-02-05T01:05:41.850Z,30.47
2019-02-05T01:08:11.269Z,31.13
2019-02-05T01:10:40.772Z,30.10
2019-02-05T01:13:10.130Z,30.13
2019-02-05T01:15:39.439Z,31.00
2019-02-05T01:18:08.785Z,29.10
2019-02-05T01:20:38.086Z,33.70
2019-02-05T01:23:07.500Z,33.20
2019-02-05T01:25:36.809Z,31.67
2019-02-05T01:28:06.152Z,33.33
2019-02-05T01:30:35.456Z,33.50
2019-02-05T01:33:04.804Z,33.87
2019-02-05T01:35:34.122Z,33.50
2019-02-05T01:38:03.465Z,30.97
2019-02-05T01:40:32.781Z,30.90
2019-02-05T01:43:02.131Z,35.13
2019-02-05T01:45:31.510Z,33.10
2019-02-05T01:48:01.875Z,32.73
2019-02-05T01:50:31.190Z,29.97
2019-02-05T01:53:00.534Z,35.17
2019-02-05T01:55:29.883Z,35.67
2019-02-05T01:57:59.184Z,32.20
2019-02-05T02:00:33.349Z,33.53
2019-02-05T02:03:02.827Z,31.70
2019-02-05T02:05:32.284Z,32.67
2019-02-05T02:08:01.896Z,32.17
2019-02-05T02:10:31.266Z,30.67
2019-02-05T02:13:00.565Z,30.40
2019-02-05T02:15:29.913Z,32.30
2019-02-05T02:17:59.220Z,30.87
2019-02-05T02:20:28.573Z,32.83
2019-02-05T02:22:58.276Z,34.40
2019-02-05T02:25:27.630Z,32.97
2019-02-05T02:27:56.936Z,33.67
2019-02-05T02:30:28.633Z,32.27
2019-02-05T02:32:57.941Z,33.03
2019-02-05T02:35:28.357Z,31.37
2019-02-05T02:37:57.744Z,31.33
2019-02-05T02:40:27.089Z,28.97
2019-02-05T02:42:56.465Z,32.73
2019-02-05T02:45:25.836Z,31.73
2019-02-05T02:47:55.204Z,32.80
2019-02-05T02:50:24.553Z,31.83
2019-02-05T02:52:53.874Z,33.20
2019-02-05T02:55:23.235Z,30.60
2019-02-05T02:57:52.541Z,20.63
2019-02-05T03:00:22.848Z,35.47
2019-02-05T03:02:52.341Z,34.43
2019-02-05T03:05:23.532Z,35.30
2019-02-05T03:07:52.913Z,36.00
2019-02-05T03:10:24.870Z,36.40
2019-02-05T03:12:54.408Z,34.57
2019-02-05T03:15:23.765Z,34.13
2019-02-05T03:17:53.065Z,35.33
2019-02-05T03:20:22.426Z,38.10
2019-02-05T03:22:52.124Z,32.47
2019-02-05T03:25:24.173Z,34.50
2019-02-05T03:27:54.366Z,36.10
2019-02-05T03:30:25.678Z,37.03
2019-02-05T03:32:56.508Z,40.13
2019-02-05T03:35:25.944Z,35.53
2019-02-05T03:37:55.341Z,37.43
2019-02-05T03:40:30.924Z,32.33
2019-02-05T03:43:00.239Z,33.83
2019-02-05T03:45:30.252Z,39.17
2019-02-05T03:48:02.769Z,38.83
2019-02-05T03:50:42.021Z,40.17
2019-02-05T03:53:26.416Z,38.97
2019-02-05T03:56:01.552Z,32.63
2019-02-05T03:58:48.882Z,39.77
2019-02-05T04:01:21.485Z,37.23
2019-02-05T04:03:56.621Z,39.30
2019-02-05T04:06:51.465Z,40.73
2019-02-05T04:09:32.761Z,33.57
2019-02-05T04:12:14.138Z,36.60
2019-02-05T04:15:07.543Z,37.60
2019-02-05T04:17:56.501Z,40.97
2019-02-05T04:21:02.824Z,24.47
2019-02-05T04:23:57.760Z,38.33
2019-02-05T04:26:55.788Z,38.60
2019-02-05T04:29:30.991Z,43.57
2019-02-05T04:32:09.186Z,38.17
2019-02-05T04:34:47.612Z,34.00
2019-02-05T04:37:29.042Z,37.97
2019-02-05T04:40:07.373Z,39.73
2019-02-05T04:42:45.791Z,41.60
2019-02-05T04:45:33.369Z,39.57
2019-02-05T04:48:21.595Z,40.33
2019-02-05T04:50:54.201Z,42.90
2019-02-05T04:53:44.473Z,41.90
2019-02-05T04:56:28.989Z,49.33
2019-02-05T04:59:04.213Z,46.53
2019-02-05T05:01:55.990Z,44.73
2019-02-05T05:04:37.206Z,35.53
2019-02-05T05:07:12.798Z,43.10
2019-02-05T05:09:56.068Z,31.17
2019-02-05T05:12:26.227Z,41.17
2019-02-05T05:14:55.563Z,38.03
2019-02-05T05:17:24.937Z,34.13
2019-02-05T05:19:54.237Z,44.60
2019-02-05T05:22:23.583Z,43.20
2019-02-05T05:24:52.894Z,41.27
2019-02-05T05:27:23.972Z,37.70
2019-02-05T05:29:53.281Z,66.07
2019-02-05T05:32:22.637Z,46.37
2019-02-05T05:34:51.952Z,48.00
2019-02-05T05:37:21.997Z,44.00
2019-02-05T05:39:51.312Z,77.93
2019-02-05T05:42:20.670Z,58.07
2019-02-05T05:44:49.995Z,46.53
2019-02-05T05:47:19.486Z,49.87
2019-02-05T05:49:48.801Z,51.67
2019-02-05T05:52:18.158Z,61.87
2019-02-05T05:54:47.577Z,50.77
2019-02-05T05:57:18.811Z,47.13
2019-02-05T05:59:47.887Z,42.93
2019-02-05T06:02:18.707Z,50.23
2019-02-05T06:04:48.016Z,54.93
2019-02-05T06:07:17.372Z,42.73
2019-02-05T06:09:46.679Z,42.03
2019-02-05T06:12:16.035Z,42.63
2019-02-05T06:14:45.753Z,44.43
2019-02-05T06:17:15.098Z,42.63
2019-02-05T06:19:44.413Z,42.40
2019-02-05T06:22:13.759Z,41.63
2019-02-05T06:24:43.089Z,43.70
2019-02-05T06:27:12.414Z,41.17
2019-02-05T06:29:41.895Z,46.13
2019-02-05T06:32:11.253Z,43.03
2019-02-05T06:34:40.567Z,37.30
2019-02-05T06:37:09.905Z,35.83
2019-02-05T06:39:39.321Z,55.83
2019-02-05T06:42:08.680Z,54.97
2019-02-05T06:44:38.029Z,47.00
2019-02-05T06:47:07.538Z,45.40
2019-02-05T06:49:36.953Z,42.37
2019-02-05T06:52:06.269Z,44.60
2019-02-05T06:54:35.622Z,49.73
2019-02-05T06:57:04.929Z,47.53
2019-02-05T06:59:34.277Z,56.73
2019-02-05T07:02:03.597Z,40.20
2019-02-05T07:04:32.949Z,44.23
2019-02-05T07:07:03.238Z,42.83
2019-02-05T07:09:32.585Z,43.37
2019-02-05T07:12:01.896Z,37.13
2019-02-05T07:14:31.245Z,36.67
2019-02-05T07:17:00.555Z,44.93
2019-02-05T07:19:30.201Z,45.00
2019-02-05T07:21:59.522Z,47.83
2019-02-05T07:24:28.869Z,49.33
2019-02-05T07:26:58.181Z,47.90
2019-02-05T07:29:27.533Z,37.13
2019-02-05T07:31:56.893Z,47.37
2019-02-05T07:34:26.544Z,29.93
2019-02-05T07:36:55.849Z,43.93
2019-02-05T07:39:27.555Z,38.83
2019-02-05T07:41:56.129Z,52.23
2019-02-05T07:44:25.505Z,41.43
2019-02-05T07:46:54.825Z,36.33
2019-02-05T07:49:24.169Z,36.40
2019-02-05T07:51:53.633Z,37.87
2019-02-05T07:54:22.973Z,32.43
2019-02-05T07:56:52.278Z,41.07
2019-02-05T07:59:21.629Z,30.63
2019-02-05T08:01:51.011Z,38.03
2019-02-05T08:04:20.425Z,41.40
2019-02-05T08:06:49.738Z,31.43
2019-02-05T08:09:19.393Z,39.73
2019-02-05T08:11:51.843Z,40.00
2019-02-05T08:14:21.397Z,29.00
2019-02-05T08:16:51.669Z,29.60
2019-02-05T08:19:21.010Z,34.77
2019-02-05T08:21:50.636Z,32.30
2019-02-05T08:24:19.989Z,34.43
2019-02-05T08:26:49.607Z,35.33
2019-02-05T08:29:21.725Z,37.03
2019-02-05T08:31:50.198Z,35.20
2019-02-05T08:34:19.605Z,26.23
2019-02-05T08:36:48.910Z,36.90
2019-02-05T08:39:18.267Z,38.17
2019-02-05T08:41:47.703Z,39.87
2019-02-05T08:44:17.458Z,35.03
2019-02-05T08:46:46.758Z,33.77
2019-02-05T08:49:16.107Z,35.00
2019-02-05T08:51:45.413Z,33.00
2019-02-05T08:54:14.889Z,34.37
2019-02-05T08:56:44.201Z,34.70
2019-02-05T08:59:13.545Z,32.87
2019-02-05T09:01:42.849Z,35.77
2019-02-05T09:04:12.189Z,35.67
2019-02-05T09:06:41.491Z,34.23
2019-02-05T09:09:10.837Z,36.83
2019-02-05T09:11:40.171Z,34.17
2019-02-05T09:14:11.040Z,34.90
2019-02-05T09:16:40.439Z,30.57
2019-02-05T09:19:09.751Z,28.93
2019-02-05T09:21:39.086Z,33.33
2019-02-05T09:24:08.394Z,34.87
2019-02-05T09:26:37.737Z,32.07
2019-02-05T09:29:07.046Z,29.80
2019-02-05T09:31:36.385Z,34.83
2019-02-05T09:34:05.725Z,35.43
2019-02-05T09:36:35.070Z,35.03
2019-02-05T09:39:06.467Z,29.10
2019-02-05T09:41:36.677Z,33.53
2019-02-05T09:44:05.985Z,38.23
2019-02-05T09:46:35.328Z,40.07
2019-02-05T09:49:04.929Z,38.77
2019-02-05T09:51:34.287Z,40.70
2019-02-05T09:54:03.589Z,40.03
2019-02-05T09:56:33.698Z,39.80
2019-02-05T09:59:02.993Z,34.27
2019-02-05T10:01:32.333Z,38.93
2019-02-05T10:04:01.647Z,39.80
2019-02-05T10:06:30.997Z,41.83
2019-02-05T10:09:00.297Z,33.40
2019-02-05T10:11:29.813Z,41.73
2019-02-05T10:13:59.122Z,44.10
2019-02-05T10:16:28.473Z,44.07
2019-02-05T10:18:57.773Z,39.73
2019-02-05T10:21:27.480Z,40.87
2019-02-05T10:23:56.777Z,37.53
2019-02-05T10:26:26.122Z,38.30
2019-02-05T10:28:55.421Z,41.93
2019-02-05T10:31:26.685Z,43.23
2019-02-05T10:33:56.609Z,37.20
2019-02-05T10:36:25.954Z,41.80
2019-02-05T10:38:55.265Z,39.93
2019-02-05T10:41:24.632Z,40.40
2019-02-05T10:43:53.923Z,41.07
2019-02-05T10:46:23.269Z,38.43
2019-02-05T10:48:52.573Z,36.00
2019-02-05T10:51:21.924Z,37.53
2019-02-05T10:53:51.631Z,35.53
2019-02-05T10:56:20.985Z,41.03
2019-02-05T10:58:50.600Z,38.83
2019-02-05T11:01:19.957Z,42.03
2019-02-05T11:03:49.262Z,38.73
2019-02-05T11:06:20.147Z,42.50
2019-02-05T11:08:49.617Z,39.33
2019-02-05T11:11:18.961Z,43.77
2019-02-05T11:13:48.273Z,37.00
2019-02-05T11:16:17.625Z,44.87
2019-02-05T11:18:48.204Z,38.23
2019-02-05T11:21:17.553Z,42.00
2019-02-05T11:23:46.859Z,35.70
2019-02-05T11:26:16.666Z,40.93
2019-02-05T11:28:45.977Z,45.53
2019-02-05T11:31:15.331Z,42.57
2019-02-05T11:33:44.818Z,44.20
2019-02-05T11:36:14.189Z,44.33
2019-02-05T11:38:43.501Z,42.00
2019-02-05T11:41:13.763Z,48.53
2019-02-05T11:43:44.225Z,46.53
2019-02-05T11:46:13.542Z,41.83
2019-02-05T11:48:42.889Z,45.37
2019-02-05T11:51:12.202Z,41.03
2019-02-05T11:53:41.559Z,45.23
2019-02-05T11:56:10.855Z,44.60
2019-02-05T11:58:40.599Z,40.70
2019-02-05T12:01:11.172Z,44.10
2019-02-05T12:03:40.527Z,44.27
2019-02-05T12:06:09.824Z,43.30
2019-02-05T12:08:39.178Z,45.93
2019-02-05T12:11:08.496Z,47.47
2019-02-05T12:13:37.833Z,44.07
2019-02-05T12:16:07.347Z,40.17
2019-02-05T12:18:36.689Z,40.80
2019-02-05T12:21:05.985Z,42.67
2019-02-05T12:23:35.334Z,40.83
2019-02-05T12:26:04.633Z,42.17
2019-02-05T12:28:34.942Z,42.77
2019-02-05T12:31:04.245Z,40.67
2019-02-05T12:33:33.606Z,44.13
2019-02-05T12:36:02.913Z,42.57
2019-02-05T12:38:32.261Z,43.33
2019-02-05T12:41:01.569Z,41.43
2019-02-05T12:43:30.950Z,42.13
2019-02-05T12:46:00.241Z,42.33
2019-02-05T12:48:29.890Z,41.47
2019-02-05T12:50:59.198Z,40.07
2019-02-05T12:53:28.554Z,42.00
2019-02-05T12:55:57.852Z,38.70
2019-02-05T12:58:27.212Z,41.53
2019-02-05T13:01:01.341Z,38.30
2019-02-05T13:03:27.479Z,41.27
2019-02-05T13:05:56.784Z,42.23
2019-02-05T13:08:26.129Z,38.67
2019-02-05T13:10:55.440Z,41.17
2019-02-05T13:13:24.794Z,36.83
2019-02-05T13:15:54.101Z,40.20
2019-02-05T13:18:23.749Z,41.13
2019-02-05T13:20:53.061Z,40.67
2019-02-05T13:23:22.409Z,37.60
2019-02-05T13:25:51.710Z,38.77
2019-02-05T13:28:21.055Z,36.87
2019-02-05T13:30:50.448Z,39.57
2019-02-05T13:33:19.890Z,41.67
2019-02-05T13:35:49.197Z,39.33
2019-02-05T13:38:18.950Z,36.87
2019-02-05T13:40:48.349Z,38.63
2019-02-05T13:43:17.709Z,38.33
2019-02-05T13:45:47.023Z,38.67
2019-02-05T13:48:16.702Z,39.73
2019-02-05T13:50:46.013Z,38.27
2019-02-05T13:53:15.377Z,37.77
2019-02-05T13:55:44.835Z,35.73
2019-02-05T13:58:14.185Z,38.27
2019-02-05T14:00:48.854Z,37.60
2019-02-05T14:03:18.321Z,37.93
2019-02-05T14:05:47.855Z,34.77
2019-02-05T14:08:17.378Z,39.07
2019-02-05T14:10:48.521Z,40.03
2019-02-05T14:13:17.834Z,38.13
2019-02-05T14:15:49.262Z,42.90
2019-02-05T14:18:18.653Z,40.63
2019-02-05T14:20:47.973Z,38.07
2019-02-05T14:23:17.272Z,37.93
2019-02-05T14:25:47.069Z,37.50
2019-02-05T14:28:16.381Z,38.67
2019-02-05T14:30:48.370Z,38.40
2019-02-05T14:33:17.681Z,35.63
2019-02-05T14:35:47.038Z,34.87
2019-02-05T14:38:16.343Z,38.23
2019-02-05T14:40:45.696Z,34.57
2019-02-05T14:43:15.001Z,37.40
2019-02-05T14:45:44.545Z,32.77
2019-02-05T14:48:13.845Z,37.27
2019-02-05T14:50:45.538Z,35.73
2019-02-05T14:53:14.947Z,34.13
2019-02-05T14:55:44.284Z,34.50
2019-02-05T14:58:13.657Z,36.67
2019-02-05T15:00:43.109Z,32.00
2019-02-05T15:03:13.561Z,35.27
2019-02-05T15:05:43.517Z,34.33
2019-02-05T15:08:13.262Z,32.63
2019-02-05T15:10:42.606Z,32.10
2019-02-05T15:13:11.919Z,30.90
2019-02-05T15:15:41.259Z,30.03
2019-02-05T15:18:10.823Z,32.00
2019-02-05T15:20:42.191Z,32.97
2019-02-05T15:23:11.700Z,32.17
2019-02-05T15:25:41.116Z,33.97
2019-02-05T15:28:10.713Z,34.07
2019-02-05T15:30:43.314Z,32.67
2019-02-05T15:33:25.425Z,36.53
2019-02-05T15:35:56.401Z,37.53
2019-02-05T15:38:27.345Z,36.20
2019-02-05T15:40:56.831Z,30.87
2019-02-05T15:43:26.114Z,33.27
2019-02-05T15:45:55.476Z,31.50
2019-02-05T15:48:24.783Z,33.27
2019-02-05T15:50:54.122Z,32.90
2019-02-05T15:53:23.727Z,31.97
2019-02-05T15:55:53.229Z,33.13
2019-02-05T15:58:22.499Z,31.67
2019-02-05T16:00:51.846Z,45.80
2019-02-05T16:03:21.326Z,39.93
2019-02-05T16:05:50.665Z,37.03
2019-02-05T16:08:20.373Z,31.93
2019-02-05T16:10:49.742Z,32.83
2019-02-05T16:13:19.043Z,31.37
2019-02-05T16:15:49.401Z,33.57
2019-02-05T16:18:18.693Z,34.13
2019-02-05T16:20:48.041Z,31.57
2019-02-05T16:23:17.646Z,34.10
2019-02-05T16:25:47.022Z,32.53
2019-02-05T16:28:16.333Z,30.93
2019-02-05T16:30:45.677Z,30.90
2019-02-05T16:33:15.082Z,33.97
2019-02-05T16:35:44.437Z,34.33
2019-02-05T16:38:13.745Z,33.57
2019-02-05T16:40:43.100Z,51.67
2019-02-05T16:43:12.410Z,70.73
2019-02-05T16:45:41.774Z,32.00
2019-02-05T16:48:11.094Z,29.27
2019-02-05T16:50:45.698Z,30.97
2019-02-05T16:53:15.302Z,38.30
2019-02-05T16:55:44.736Z,31.80
2019-02-05T16:58:14.045Z,35.57
2019-02-05T17:00:43.442Z,35.37
2019-02-05T17:03:12.777Z,30.07
2019-02-05T17:05:44.164Z,52.30
2019-02-05T17:08:13.803Z,39.63
2019-02-05T17:10:43.206Z,42.60
2019-02-05T17:13:12.559Z,40.30
2019-02-05T17:15:41.860Z,32.07
2019-02-05T17:18:11.279Z,30.57
2019-02-05T17:20:40.620Z,28.13
2019-02-05T17:23:10.846Z,31.03
2019-02-05T17:25:40.153Z,27.37
2019-02-05T17:28:09.539Z,29.30
2019-02-05T17:30:40.380Z,29.13
2019-02-05T17:33:09.774Z,27.73
2019-02-05T17:35:39.158Z,28.07
2019-02-05T17:38:09.149Z,30.60
2019-02-05T17:40:38.449Z,27.67
2019-02-05T17:43:07.838Z,28.60
2019-02-05T17:45:39.278Z,29.93
2019-02-05T17:48:11.334Z,26.77
2019-02-05T17:50:41.054Z,28.33
2019-02-05T17:53:10.416Z,28.33
2019-02-05T17:55:39.753Z,24.93
2019-02-05T17:58:09.122Z,27.37
2019-02-05T18:00:50.003Z,26.80
2019-02-05T18:03:19.711Z,28.30
2019-02-05T18:05:49.013Z,28.47
2019-02-05T18:08:18.582Z,28.63
2019-02-05T18:10:47.888Z,28.53
2019-02-05T18:13:17.697Z,26.70
2019-02-05T18:15:47.001Z,27.03
2019-02-05T18:18:16.758Z,26.77
2019-02-05T18:20:46.096Z,29.87
2019-02-05T18:23:15.581Z,25.43
2019-02-05T18:25:44.885Z,28.80
2019-02-05T18:28:14.233Z,28.60
2019-02-05T18:30:43.549Z,27.30
2019-02-05T18:33:13.197Z,29.23
2019-02-05T18:35:42.509Z,26.33
2019-02-05T18:38:14.712Z,27.53
2019-02-05T18:40:44.022Z,27.67
2019-02-05T18:43:13.448Z,24.50
2019-02-05T18:45:43.721Z,27.63
2019-02-05T18:48:14.260Z,26.50
2019-02-05T18:50:43.570Z,25.53
2019-02-05T18:53:12.916Z,26.87
2019-02-05T18:55:44.365Z,26.17
2019-02-05T18:58:13.734Z,26.80
2019-02-05T19:00:46.482Z,27.70
2019-02-05T19:03:16.455Z,25.53
2019-02-05T19:05:45.922Z,27.27
2019-02-05T19:08:16.415Z,30.17
2019-02-05T19:10:45.994Z,26.67
2019-02-05T19:13:15.348Z,26.47
2019-02-05T19:15:46.426Z,27.00
2019-02-05T19:18:16.002Z,37.43
2019-02-05T19:20:45.320Z,23.23
2019-02-05T19:23:14.648Z,27.33
2019-02-05T19:25:48.298Z,32.80
2019-02-05T19:28:27.744Z,31.20
2019-02-05T19:30:58.601Z,26.00
2019-02-05T19:33:29.588Z,26.40
2019-02-05T19:35:58.891Z,28.67
2019-02-05T19:38:28.237Z,26.63
2019-02-05T19:40:57.938Z,25.63
2019-02-05T19:43:28.233Z,26.70
2019-02-05T19:45:59.219Z,36.63
2019-02-05T19:48:31.626Z,31.07
2019-02-05T19:51:01.373Z,34.57
2019-02-05T19:53:30.672Z,26.00
2019-02-05T19:56:00.321Z,26.43
2019-02-05T19:58:29.625Z,27.10
2019-02-05T20:00:58.986Z,26.57
2019-02-05T20:03:38.410Z,26.90
2019-02-05T20:05:59.255Z,26.63
2019-02-05T20:08:28.554Z,26.80
2019-02-05T20:10:58.251Z,26.13
2019-02-05T20:13:27.552Z,27.37
2019-02-05T20:15:57.206Z,26.43
2019-02-05T20:18:27.685Z,26.87
2019-02-05T20:20:57.026Z,30.40
2019-02-05T20:23:26.329Z,25.90
2019-02-05T20:25:55.681Z,24.77
2019-02-05T20:28:25.953Z,28.53
2019-02-05T20:30:55.712Z,27.33
2019-02-05T20:33:26.649Z,25.47
2019-02-05T20:35:59.272Z,26.53
2019-02-05T20:38:28.598Z,27.70
2019-02-05T20:40:58.006Z,26.10
2019-02-05T20:43:31.607Z,26.23
2019-02-05T20:46:02.334Z,27.47
2019-02-05T20:48:34.382Z,28.20
2019-02-05T20:51:03.728Z,33.40
2019-02-05T20:53:33.030Z,42.57
2019-02-05T20:56:03.158Z,28.07
2019-02-05T20:58:32.473Z,26.03
2019-02-05T21:01:02.225Z,30.10
2019-02-05T21:03:34.790Z,29.07
2019-02-05T21:06:04.133Z,26.23
2019-02-05T21:08:33.434Z,35.47
2019-02-05T21:11:03.733Z,43.37
2019-02-05T21:13:33.034Z,33.10
2019-02-05T21:16:04.076Z,36.27
2019-02-05T21:18:35.018Z,32.50
2019-02-05T21:21:05.385Z,27.70
2019-02-05T21:23:37.990Z,28.03
2019-02-05T21:26:06.758Z,26.10
2019-02-05T21:28:36.056Z,27.20
2019-02-05T21:31:06.047Z,26.83
2019-02-05T21:33:36.505Z,28.07
2019-02-05T21:36:06.023Z,28.53
2019-02-05T21:38:36.484Z,33.17
2019-02-05T21:41:05.773Z,32.00
2019-02-05T21:43:35.150Z,29.67
2019-02-05T21:46:04.758Z,37.10
2019-02-05T21:48:34.141Z,30.50
2019-02-05T21:51:03.454Z,32.17
2019-02-05T21:53:32.830Z,33.17
2019-02-05T21:56:02.138Z,43.47
2019-02-05T21:58:31.498Z,27.90
2019-02-05T22:01:00.804Z,30.87
2019-02-05T22:03:31.525Z,28.93
2019-02-05T22:06:00.829Z,33.10
2019-02-05T22:08:30.188Z,30.30
2019-02-05T22:10:59.502Z,31.63
2019-02-05T22:13:28.931Z,30.73
2019-02-05T22:15:58.233Z,26.40
2019-02-05T22:18:27.573Z,27.33
2019-02-05T22:20:56.922Z,27.60
2019-02-05T22:23:26.271Z,28.03
2019-02-05T22:25:55.599Z,27.97
2019-02-05T22:28:24.904Z,28.80
2019-02-05T22:30:54.514Z,28.10
2019-02-05T22:33:23.853Z,26.33
2019-02-05T22:35:53.460Z,29.53
2019-02-05T22:38:22.824Z,27.37
2019-02-05T22:40:52.133Z,26.50
2019-02-05T22:43:21.493Z,30.80
2019-02-05T22:45:52.659Z,30.17
2019-02-05T22:48:22.025Z,28.03
2019-02-05T22:50:51.529Z,30.10
2019-02-05T22:53:20.885Z,26.90
2019-02-05T22:55:50.191Z,28.90
2019-02-05T22:58:19.657Z,34.70
2019-02-05T23:01:06.362Z,32.30
2019-02-05T23:03:39.362Z,31.90
2019-02-05T23:06:12.314Z,28.93
2019-02-05T23:08:41.660Z,31.10
2019-02-05T23:11:26.173Z,29.10
2019-02-05T23:13:56.493Z,30.53
2019-02-05T23:16:25.865Z,29.33
2019-02-05T23:18:55.205Z,29.07
2019-02-05T23:21:24.512Z,28.50
2019-02-05T23:23:53.922Z,26.30
2019-02-05T23:26:24.046Z,30.57
2019-02-05T23:28:53.536Z,28.37
2019-02-05T23:31:22.842Z,28.90
2019-02-05T23:33:52.197Z,28.07
2019-02-05T23:36:21.541Z,26.37
2019-02-05T23:38:50.890Z,29.13
2019-02-05T23:41:20.589Z,28.43
2019-02-05T23:43:49.904Z,26.83
2019-02-05T23:46:19.248Z,28.43
2019-02-05T23:48:48.553Z,27.27
2019-02-05T23:51:17.915Z,27.47
2019-02-05T23:53:47.209Z,26.33
2019-02-05T23:56:25.489Z,27.40
2019-02-05T23:58:47.650Z,27.77
